KFNL/FNL METAR and TAF weather

Enter ICAO airport designator
Station Type Date Time Source
KFNL METAR 2022/05/23 13:14 UTC NOAA

KFNL 231314Z 04005KT 10SM SCT031 OVC090 07/04 A3002 RMK AO2


Station Type Date Time Source
KFNL Decoded METAR 2022/05/23 13:14 UTC NOAA

Fort Collins/Loveland, Fort Collins-Loveland Municipal Airport, CO, United States (KFNL) 40-27N 105-01W
May 23, 2022 - 09:14 AM EDT / 2022.05.23 1314 UTC
Wind: from the NE (040 degrees) at 6 MPH (5 KT):0
Visibility: 10 mile(s):0
Sky conditions: overcast
Temperature: 44 F (7 C)
Dew Point: 39 F (4 C)
Relative Humidity: 81%
Pressure (altimeter): 30.02 in. Hg (1016 hPa)
ob: KFNL 231314Z 04005KT 10SM SCT031 OVC090 07/04 A3002 RMK AO2
cycle: 13

Station Type Date Time Source
KFNL TAF UTC NOAA

Error!

Example: see airport list